createdAt,value
2018-07-12T00:00:02.669Z,980.5
2018-07-12T00:01:03.819Z,980.5
2018-07-12T00:02:04.959Z,980.5
2018-07-12T00:03:06.158Z,980.5
2018-07-12T00:04:07.349Z,980.6
2018-07-12T00:05:08.522Z,980.6
2018-07-12T00:06:09.690Z,980.6
2018-07-12T00:07:10.872Z,980.6
2018-07-12T00:08:12.000Z,980.6
2018-07-12T00:09:13.149Z,980.6
2018-07-12T00:10:14.364Z,980.6
2018-07-12T00:11:17.439Z,980.6
2018-07-12T00:12:18.805Z,980.5
2018-07-12T00:13:20.004Z,980.5
2018-07-12T00:14:21.160Z,980.4
2018-07-12T00:15:22.347Z,980.4
2018-07-12T00:16:23.484Z,980.4
2018-07-12T00:17:24.672Z,980.4
2018-07-12T00:18:25.802Z,980.4
2018-07-12T00:19:27.844Z,980.5
2018-07-12T00:20:29.157Z,980.5
2018-07-12T00:21:30.314Z,980.5
2018-07-12T00:22:33.437Z,980.5
2018-07-12T00:23:34.953Z,980.5
2018-07-12T00:24:36.133Z,980.5
2018-07-12T00:25:37.457Z,980.4
2018-07-12T00:26:38.611Z,980.4
2018-07-12T00:27:39.788Z,980.4
2018-07-12T00:28:41.776Z,980.4
2018-07-12T00:29:43.067Z,980.4
2018-07-12T00:30:44.269Z,980.4
2018-07-12T00:31:46.253Z,980.4
2018-07-12T00:32:47.406Z,980.4
2018-07-12T00:33:48.680Z,980.4
2018-07-12T00:34:49.865Z,980.5
2018-07-12T00:35:51.045Z,980.6
2018-07-12T00:36:52.610Z,980.5
2018-07-12T00:37:53.730Z,980.5
2018-07-12T00:38:54.994Z,980.6
2018-07-12T00:39:56.173Z,980.6
2018-07-12T00:40:57.366Z,980.6
2018-07-12T00:41:58.526Z,980.7
2018-07-12T00:42:59.674Z,980.6
2018-07-12T00:44:00.866Z,980.7
2018-07-12T00:45:02.005Z,980.6
2018-07-12T00:46:03.207Z,980.6
2018-07-12T00:47:04.350Z,980.5
2018-07-12T00:48:05.486Z,980.7
2018-07-12T00:49:06.637Z,980.7
2018-07-12T00:50:07.799Z,980.7
2018-07-12T00:51:08.994Z,980.7
2018-07-12T00:52:10.150Z,980.6
2018-07-12T00:53:11.302Z,980.7
2018-07-12T00:54:12.428Z,980.7
2018-07-12T00:55:13.572Z,980.7
2018-07-12T00:56:14.754Z,980.7
2018-07-12T00:57:15.922Z,980.7
2018-07-12T00:58:17.598Z,980.7
2018-07-12T00:59:18.733Z,980.7
2018-07-12T01:00:19.913Z,980.7
2018-07-12T01:01:21.105Z,980.6
2018-07-12T01:02:22.241Z,980.6
2018-07-12T01:03:23.401Z,980.6
2018-07-12T01:04:24.572Z,980.6
2018-07-12T01:05:25.757Z,980.6
2018-07-12T01:06:26.949Z,980.6
2018-07-12T01:07:28.125Z,980.6
2018-07-12T01:08:29.326Z,980.6
2018-07-12T01:09:30.477Z,980.6
2018-07-12T01:10:31.622Z,980.6
2018-07-12T01:11:32.969Z,980.6
2018-07-12T01:12:34.140Z,980.6
2018-07-12T01:13:35.285Z,980.6
2018-07-12T01:14:36.441Z,980.6
2018-07-12T01:15:37.585Z,980.6
2018-07-12T01:16:38.766Z,980.6
2018-07-12T01:17:39.966Z,980.7
2018-07-12T01:18:41.111Z,980.7
2018-07-12T01:19:42.290Z,980.7
2018-07-12T01:20:43.430Z,980.7
2018-07-12T01:21:44.622Z,980.8
2018-07-12T01:22:45.930Z,980.9
2018-07-12T01:23:47.501Z,980.8
2018-07-12T01:24:48.656Z,980.8
2018-07-12T01:25:49.897Z,980.8
2018-07-12T01:26:51.385Z,980.8
2018-07-12T01:27:52.547Z,980.8
2018-07-12T01:28:53.715Z,980.7
2018-07-12T01:29:54.862Z,980.8
2018-07-12T01:30:56.011Z,980.8
2018-07-12T01:31:57.190Z,980.7
2018-07-12T01:32:59.361Z,980.8
2018-07-12T01:34:03.090Z,980.7
2018-07-12T01:35:04.294Z,980.8
2018-07-12T01:36:05.522Z,980.9
2018-07-12T01:37:06.661Z,980.9
2018-07-12T01:38:07.841Z,980.8
2018-07-12T01:39:09.017Z,980.9
2018-07-12T01:40:10.177Z,980.8
2018-07-12T01:41:13.158Z,980.8
2018-07-12T01:42:14.753Z,980.8
2018-07-12T01:43:16.310Z,980.9
2018-07-12T01:44:17.443Z,980.9
2018-07-12T01:45:18.588Z,980.8
2018-07-12T01:46:19.741Z,980.9
2018-07-12T01:47:21.115Z,980.9
2018-07-12T01:48:22.565Z,980.9
2018-07-12T01:49:23.793Z,980.9
2018-07-12T01:50:24.965Z,980.9
2018-07-12T01:51:26.113Z,981
2018-07-12T01:52:27.301Z,980.9
2018-07-12T01:53:28.444Z,981
2018-07-12T01:54:29.591Z,980.9
2018-07-12T01:55:30.750Z,981
2018-07-12T01:56:31.865Z,981
2018-07-12T01:57:33.093Z,981
2018-07-12T01:58:34.253Z,981
2018-07-12T01:59:35.392Z,981
2018-07-12T02:00:36.673Z,980.9
2018-07-12T02:01:37.773Z,981
2018-07-12T02:02:38.946Z,981
2018-07-12T02:03:40.142Z,981.1
2018-07-12T02:04:41.277Z,981.1
2018-07-12T02:05:42.701Z,981.1
2018-07-12T02:06:43.886Z,981.1
2018-07-12T02:07:45.046Z,981.1
2018-07-12T02:08:46.193Z,981.1
2018-07-12T02:09:47.354Z,981
2018-07-12T02:10:48.484Z,981.1
2018-07-12T02:11:49.665Z,981.1
2018-07-12T02:12:51.010Z,981.1
2018-07-12T02:13:52.149Z,981.1
2018-07-12T02:14:53.309Z,981.1
2018-07-12T02:15:54.469Z,981
2018-07-12T02:16:55.642Z,981
2018-07-12T02:17:56.812Z,981.1
2018-07-12T02:18:58.400Z,981.1
2018-07-12T02:19:59.561Z,981.1
2018-07-12T02:21:00.719Z,981
2018-07-12T02:22:03.767Z,981.1
2018-07-12T02:23:06.026Z,981
2018-07-12T02:24:07.164Z,981.1
2018-07-12T02:25:08.318Z,981
2018-07-12T02:26:09.450Z,981.1
2018-07-12T02:27:10.590Z,981.1
2018-07-12T02:28:11.812Z,981
2018-07-12T02:29:12.954Z,981.2
2018-07-12T02:30:14.103Z,981.1
2018-07-12T02:31:15.285Z,981.1
2018-07-12T02:32:16.417Z,981.2
2018-07-12T02:33:17.582Z,981.1
2018-07-12T02:34:18.714Z,981.1
2018-07-12T02:35:19.922Z,981.1
2018-07-12T02:36:21.090Z,980.8
2018-07-12T02:37:22.250Z,981
2018-07-12T02:38:23.423Z,981.1
2018-07-12T02:39:24.580Z,980.9
2018-07-12T02:40:25.732Z,980.8
2018-07-12T02:41:26.914Z,980.9
2018-07-12T02:42:28.057Z,981
2018-07-12T02:43:29.427Z,981
2018-07-12T02:44:30.558Z,980.9
2018-07-12T02:45:31.750Z,981
2018-07-12T02:46:32.903Z,981.1
2018-07-12T02:47:34.037Z,981.1
2018-07-12T02:48:35.206Z,981.1
2018-07-12T02:49:36.355Z,981
2018-07-12T02:50:37.507Z,981.1
2018-07-12T02:51:38.652Z,981.1
2018-07-12T02:52:39.834Z,981.1
2018-07-12T02:53:41.005Z,981.1
2018-07-12T02:54:42.172Z,981
2018-07-12T02:55:43.339Z,980.9
2018-07-12T02:56:44.505Z,981.1
2018-07-12T02:57:45.805Z,981
2018-07-12T02:58:47.018Z,981
2018-07-12T02:59:48.189Z,981.1
2018-07-12T03:00:49.399Z,981.1
2018-07-12T03:01:50.538Z,981.1
2018-07-12T03:02:51.685Z,981.1
2018-07-12T03:03:52.854Z,981.1
2018-07-12T03:04:54.014Z,981.1
2018-07-12T03:05:55.178Z,980.9
2018-07-12T03:06:56.343Z,981.2
2018-07-12T03:07:59.282Z,981
2018-07-12T03:09:00.477Z,981.1
2018-07-12T03:10:01.683Z,981.2
2018-07-12T03:11:02.823Z,981.2
2018-07-12T03:12:03.977Z,981.2
2018-07-12T03:13:05.132Z,981.2
2018-07-12T03:14:06.326Z,981.2
2018-07-12T03:15:07.510Z,981.2
2018-07-12T03:16:08.677Z,981.3
2018-07-12T03:17:09.867Z,981.2
2018-07-12T03:18:11.043Z,981.2
2018-07-12T03:19:12.215Z,981.3
2018-07-12T03:20:13.697Z,981.4
2018-07-12T03:21:14.821Z,981.3
2018-07-12T03:22:16.005Z,981.4
2018-07-12T03:23:17.185Z,981.4
2018-07-12T03:24:18.395Z,981.3
2018-07-12T03:25:19.563Z,981.4
2018-07-12T03:26:20.677Z,981.4
2018-07-12T03:27:21.857Z,981.4
2018-07-12T03:28:23.001Z,981.4
2018-07-12T03:29:24.522Z,981.3
2018-07-12T03:30:25.657Z,981.3
2018-07-12T03:31:26.815Z,981.4
2018-07-12T03:32:27.970Z,981.3
2018-07-12T03:33:29.114Z,981.2
2018-07-12T03:34:30.349Z,981.3
2018-07-12T03:35:31.518Z,981.3
2018-07-12T03:36:32.640Z,981.3
2018-07-12T03:37:33.783Z,981.2
2018-07-12T03:38:34.974Z,981.1
2018-07-12T03:39:36.143Z,981.2
2018-07-12T03:40:37.339Z,981.3
2018-07-12T03:41:38.462Z,981.3
2018-07-12T03:42:39.653Z,981.4
2018-07-12T03:43:40.820Z,981.4
2018-07-12T03:44:42.278Z,981.4
2018-07-12T03:45:43.425Z,981.4
2018-07-12T03:46:44.586Z,981.4
2018-07-12T03:47:45.766Z,981.5
2018-07-12T03:48:46.918Z,981.5
2018-07-12T03:49:48.456Z,981.4
2018-07-12T03:50:49.629Z,981.4
2018-07-12T03:51:50.802Z,981.5
2018-07-12T03:52:51.958Z,981.5
2018-07-12T03:53:53.229Z,981.5
2018-07-12T03:54:54.413Z,981.5
2018-07-12T03:55:55.577Z,981.6
2018-07-12T03:56:56.748Z,981.5
2018-07-12T03:57:57.914Z,981.6
2018-07-12T03:58:59.050Z,981.5
2018-07-12T04:00:00.302Z,981.5
2018-07-12T04:01:01.443Z,981.6
2018-07-12T04:02:02.612Z,981.5
2018-07-12T04:03:03.787Z,981.6
2018-07-12T04:04:04.955Z,981.5
2018-07-12T04:05:06.228Z,981.5
2018-07-12T04:06:07.381Z,981.5
2018-07-12T04:07:08.533Z,981.5
2018-07-12T04:08:09.685Z,981.5
2018-07-12T04:09:10.867Z,981.5
2018-07-12T04:10:12.079Z,981.6
2018-07-12T04:11:13.264Z,981.5
2018-07-12T04:12:14.392Z,981.6
2018-07-12T04:13:15.533Z,981.5
2018-07-12T04:14:16.681Z,981.6
2018-07-12T04:15:18.070Z,981.5
2018-07-12T04:16:19.202Z,981.4
2018-07-12T04:17:20.366Z,981.4
2018-07-12T04:18:21.502Z,981.5
2018-07-12T04:19:22.703Z,981.5
2018-07-12T04:20:23.893Z,981.5
2018-07-12T04:21:25.081Z,981.5
2018-07-12T04:22:26.257Z,981.5
2018-07-12T04:23:27.444Z,981.5
2018-07-12T04:24:28.603Z,981.5
2018-07-12T04:25:29.782Z,981.5
2018-07-12T04:26:30.929Z,981.6
2018-07-12T04:27:32.095Z,981.4
2018-07-12T04:28:33.361Z,981.4
2018-07-12T04:29:34.531Z,981.6
2018-07-12T04:30:35.745Z,981.6
2018-07-12T04:31:36.915Z,981.6
2018-07-12T04:32:38.062Z,981.6
2018-07-12T04:33:39.218Z,981.7
2018-07-12T04:34:40.448Z,981.7
2018-07-12T04:35:41.553Z,981.7
2018-07-12T04:36:42.711Z,981.7
2018-07-12T04:37:43.897Z,981.7
2018-07-12T04:38:44.987Z,981.8
2018-07-12T04:39:46.574Z,981.7
2018-07-12T04:40:47.771Z,981.8
2018-07-12T04:41:48.917Z,981.8
2018-07-12T04:42:50.075Z,981.8
2018-07-12T04:43:51.213Z,981.8
2018-07-12T04:44:52.404Z,981.8
2018-07-12T04:45:53.843Z,981.8
2018-07-12T04:46:55.014Z,981.8
2018-07-12T04:47:56.146Z,981.8
2018-07-12T04:48:57.284Z,981.8
2018-07-12T04:49:58.429Z,981.8
2018-07-12T04:50:59.606Z,981.8
2018-07-12T04:52:00.775Z,981.9
2018-07-12T04:53:01.925Z,981.8
2018-07-12T04:54:03.097Z,981.8
2018-07-12T04:55:04.301Z,981.8
2018-07-12T04:56:05.491Z,981.8
2018-07-12T04:57:06.641Z,981.8
2018-07-12T04:58:07.845Z,981.8
2018-07-12T04:59:09.356Z,981.8
2018-07-12T05:00:10.553Z,981.8
2018-07-12T05:01:11.779Z,981.8
2018-07-12T05:02:12.951Z,981.7
2018-07-12T05:03:14.110Z,981.8
2018-07-12T05:04:15.269Z,981.8
2018-07-12T05:05:16.424Z,981.7
2018-07-12T05:06:17.662Z,981.8
2018-07-12T05:07:18.835Z,981.8
2018-07-12T05:08:20.017Z,981.7
2018-07-12T05:09:21.149Z,981.8
2018-07-12T05:10:22.293Z,981.7
2018-07-12T05:11:23.449Z,981.7
2018-07-12T05:12:24.605Z,981.9
2018-07-12T05:13:25.766Z,981.9
2018-07-12T05:14:26.938Z,981.9
2018-07-12T05:15:28.135Z,981.9
2018-07-12T05:16:29.481Z,981.9
2018-07-12T05:17:31.425Z,981.9
2018-07-12T05:18:33.007Z,982
2018-07-12T05:19:34.178Z,981.9
2018-07-12T05:20:35.317Z,981.9
2018-07-12T05:21:36.486Z,981.9
2018-07-12T05:22:37.698Z,981.8
2018-07-12T05:23:38.853Z,981.9
2018-07-12T05:24:40.252Z,981.8
2018-07-12T05:25:41.452Z,981.8
2018-07-12T05:26:42.645Z,981.9
2018-07-12T05:27:43.799Z,981.9
2018-07-12T05:28:44.968Z,981.9
2018-07-12T05:29:47.052Z,981.9
2018-07-12T05:30:48.495Z,981.9
2018-07-12T05:31:51.451Z,982
2018-07-12T05:32:52.600Z,981.9
2018-07-12T05:33:53.730Z,981.9
2018-07-12T05:34:54.882Z,981.9
2018-07-12T05:35:56.043Z,981.9
2018-07-12T05:36:57.255Z,982
2018-07-12T05:37:58.409Z,981.9
2018-07-12T05:38:59.663Z,982
2018-07-12T05:40:00.805Z,982.1
2018-07-12T05:41:02.059Z,982.1
2018-07-12T05:42:03.266Z,982.1
2018-07-12T05:43:04.402Z,982.1
2018-07-12T05:44:05.542Z,982.1
2018-07-12T05:45:06.706Z,982.1
2018-07-12T05:46:07.871Z,982.1
2018-07-12T05:47:09.251Z,982.2
2018-07-12T05:48:10.442Z,982.1
2018-07-12T05:49:11.598Z,982.1
2018-07-12T05:50:12.805Z,982.2
2018-07-12T05:51:14.070Z,982.1
2018-07-12T05:52:15.257Z,982
2018-07-12T05:53:16.409Z,982
2018-07-12T05:54:17.550Z,982.1
2018-07-12T05:55:18.791Z,981.9
2018-07-12T05:56:20.592Z,982.1
2018-07-12T05:57:21.817Z,982.1
2018-07-12T05:58:22.985Z,982.2
2018-07-12T05:59:24.427Z,982.1
2018-07-12T06:00:25.582Z,982.1
2018-07-12T06:01:26.864Z,982
2018-07-12T06:02:28.081Z,982.1
2018-07-12T06:03:29.283Z,982.1
2018-07-12T06:04:30.518Z,982.1
2018-07-12T06:05:31.682Z,982.1
2018-07-12T06:06:32.825Z,982.1
2018-07-12T06:07:34.010Z,982.1
2018-07-12T06:08:35.157Z,982
2018-07-12T06:09:36.381Z,982
2018-07-12T06:10:37.520Z,982.1
2018-07-12T06:11:38.766Z,981.9
2018-07-12T06:12:40.036Z,982
2018-07-12T06:13:41.205Z,982
2018-07-12T06:14:42.409Z,982.1
2018-07-12T06:15:43.561Z,982.2
2018-07-12T06:16:44.761Z,982.2
2018-07-12T06:17:45.957Z,982.2
2018-07-12T06:18:47.110Z,982.2
2018-07-12T06:19:48.261Z,982.1
2018-07-12T06:20:49.403Z,982.2
2018-07-12T06:21:50.620Z,982.1
2018-07-12T06:22:51.858Z,982.2
2018-07-12T06:23:53.002Z,982.3
2018-07-12T06:24:54.153Z,982.2
2018-07-12T06:25:55.293Z,982.2
2018-07-12T06:26:56.440Z,982.1
2018-07-12T06:27:59.622Z,982.1
2018-07-12T06:29:01.107Z,982
2018-07-12T06:30:02.456Z,982.3
2018-07-12T06:31:03.588Z,982.3
2018-07-12T06:32:04.814Z,982.2
2018-07-12T06:33:06.032Z,982.3
2018-07-12T06:34:07.185Z,982.3
2018-07-12T06:35:08.375Z,982.3
2018-07-12T06:36:09.547Z,982.3
2018-07-12T06:37:10.821Z,982.3
2018-07-12T06:38:11.987Z,982.2
2018-07-12T06:39:13.302Z,982.4
2018-07-12T06:40:14.625Z,982.3
2018-07-12T06:41:16.255Z,982.2
2018-07-12T06:42:18.007Z,982.4
2018-07-12T06:43:19.289Z,982.4
2018-07-12T06:44:20.805Z,982.4
2018-07-12T06:45:22.210Z,982.3
2018-07-12T06:46:23.469Z,982.3
2018-07-12T06:47:24.660Z,982.4
2018-07-12T06:48:25.961Z,982.5
2018-07-12T06:49:27.258Z,982.5
2018-07-12T06:50:28.446Z,982.6
2018-07-12T06:51:29.673Z,982.5
2018-07-12T06:52:30.850Z,982.6
2018-07-12T06:53:32.197Z,982.5
2018-07-12T06:54:33.425Z,982.5
2018-07-12T06:55:34.699Z,982.6
2018-07-12T06:56:36.134Z,982.6
2018-07-12T06:57:41.230Z,982.6
2018-07-12T06:58:42.419Z,982.7
2018-07-12T06:59:43.601Z,982.6
2018-07-12T07:00:47.727Z,982.7
2018-07-12T07:01:48.894Z,982.6
2018-07-12T07:02:50.059Z,982.7
2018-07-12T07:03:51.390Z,982.6
2018-07-12T07:04:52.539Z,982.5
2018-07-12T07:05:53.729Z,982.6
2018-07-12T07:06:54.900Z,982.6
2018-07-12T07:07:56.044Z,982.5
2018-07-12T07:08:57.270Z,982.5
2018-07-12T07:09:58.472Z,982.6
2018-07-12T07:10:59.919Z,982.6
2018-07-12T07:12:01.201Z,982.6
2018-07-12T07:13:02.359Z,982.4
2018-07-12T07:14:03.584Z,982.5
2018-07-12T07:15:04.757Z,982.5
2018-07-12T07:16:05.970Z,982.5
2018-07-12T07:17:07.210Z,982.6
2018-07-12T07:18:08.390Z,982.6
2018-07-12T07:19:09.633Z,982.6
2018-07-12T07:20:10.799Z,982.6
2018-07-12T07:21:12.009Z,982.5
2018-07-12T07:22:13.151Z,982.6
2018-07-12T07:23:14.295Z,982.5
2018-07-12T07:24:15.491Z,982.5
2018-07-12T07:25:16.654Z,982.4
2018-07-12T07:26:18.088Z,982.5
2018-07-12T07:27:19.170Z,982.5
2018-07-12T07:28:20.456Z,982.5
2018-07-12T07:29:21.700Z,982.5
2018-07-12T07:30:22.879Z,982.5
2018-07-12T07:31:24.015Z,982.5
2018-07-12T07:32:25.198Z,982.6
2018-07-12T07:33:26.362Z,982.7
2018-07-12T07:34:27.572Z,982.6
2018-07-12T07:35:28.782Z,982.6
2018-07-12T07:36:29.915Z,982.6
2018-07-12T07:37:31.090Z,982.5
2018-07-12T07:38:32.327Z,982.5
2018-07-12T07:39:33.502Z,982.6
2018-07-12T07:40:34.641Z,982.6
2018-07-12T07:41:35.777Z,982.6
2018-07-12T07:42:36.941Z,982.6
2018-07-12T07:43:38.152Z,982.5
2018-07-12T07:44:39.377Z,982.6
2018-07-12T07:45:40.530Z,982.7
2018-07-12T07:46:41.816Z,982.6
2018-07-12T07:47:42.999Z,982.6
2018-07-12T07:48:44.251Z,982.6
2018-07-12T07:49:45.468Z,982.5
2018-07-12T07:50:46.630Z,982.6
2018-07-12T07:51:47.844Z,982.6
2018-07-12T07:52:49.082Z,982.6
2018-07-12T07:53:50.235Z,982.6
2018-07-12T07:54:51.426Z,982.6
2018-07-12T07:55:52.610Z,982.6
2018-07-12T07:56:53.799Z,982.6
2018-07-12T07:57:55.013Z,982.6
2018-07-12T07:58:56.211Z,982.6
2018-07-12T07:59:57.413Z,982.6
2018-07-12T08:00:58.576Z,982.6
2018-07-12T08:01:59.729Z,982.6
2018-07-12T08:03:00.853Z,982.6
2018-07-12T08:04:02.073Z,982.7
2018-07-12T08:05:03.338Z,982.7
2018-07-12T08:06:04.566Z,982.6
2018-07-12T08:07:05.771Z,982.7
2018-07-12T08:08:06.967Z,982.7
2018-07-12T08:09:08.139Z,982.6
2018-07-12T08:10:09.363Z,982.6
2018-07-12T08:11:10.590Z,982.5
2018-07-12T08:12:11.770Z,982.6
2018-07-12T08:13:16.437Z,982.6
2018-07-12T08:14:17.598Z,982.7
2018-07-12T08:15:18.812Z,982.5
2018-07-12T08:16:19.993Z,982.4
2018-07-12T08:17:21.119Z,982.6
2018-07-12T08:18:22.347Z,982.7
2018-07-12T08:19:23.579Z,982.8
2018-07-12T08:20:24.790Z,982.6
2018-07-12T08:21:25.983Z,982.6
2018-07-12T08:22:29.079Z,982.7
2018-07-12T08:23:30.283Z,982.4
2018-07-12T08:24:31.405Z,982.6
2018-07-12T08:25:32.617Z,982.5
2018-07-12T08:26:33.766Z,982.5
2018-07-12T08:27:34.949Z,982.4
2018-07-12T08:28:36.125Z,982.6
2018-07-12T08:29:37.286Z,982.4
2018-07-12T08:30:38.471Z,982.3
2018-07-12T08:31:39.947Z,982.4
2018-07-12T08:32:41.096Z,982.4
2018-07-12T08:33:42.322Z,982.4
2018-07-12T08:34:43.494Z,982.4
2018-07-12T08:35:44.687Z,982.4
2018-07-12T08:36:46.312Z,982.3
2018-07-12T08:37:47.501Z,982.4
2018-07-12T08:38:48.692Z,982.3
2018-07-12T08:39:49.851Z,982.4
2018-07-12T08:40:51.088Z,982.3
2018-07-12T08:41:52.341Z,982.4
2018-07-12T08:42:53.541Z,982.4
2018-07-12T08:43:54.728Z,982.3
2018-07-12T08:44:55.946Z,982.3
2018-07-12T08:45:57.147Z,982.4
2018-07-12T08:46:58.305Z,982.3
2018-07-12T08:47:59.490Z,982.4
2018-07-12T08:49:00.653Z,982.3
2018-07-12T08:50:01.858Z,982.4
2018-07-12T08:51:03.192Z,982.4
2018-07-12T08:52:04.347Z,982.5
2018-07-12T08:53:05.497Z,982.6
2018-07-12T08:54:08.024Z,982.3
2018-07-12T08:55:09.772Z,982.3
2018-07-12T08:56:17.168Z,982.3
2018-07-12T08:57:18.727Z,982.5
2018-07-12T08:58:19.886Z,982.5
2018-07-12T08:59:21.071Z,982.4
2018-07-12T09:00:22.260Z,982.4
2018-07-12T09:01:23.554Z,982.4
2018-07-12T09:02:24.746Z,982.5
2018-07-12T09:03:25.959Z,982.4
2018-07-12T09:04:27.106Z,982.5
2018-07-12T09:05:28.546Z,982.5
2018-07-12T09:06:29.813Z,982.4
2018-07-12T09:07:30.977Z,982.5
2018-07-12T09:08:32.138Z,982.4
2018-07-12T09:09:33.287Z,982.4
2018-07-12T09:10:34.478Z,982.4
2018-07-12T09:11:35.658Z,982.4
2018-07-12T09:12:36.831Z,982.5
2018-07-12T09:13:38.015Z,982.5
2018-07-12T09:14:41.393Z,982.4
2018-07-12T09:15:42.684Z,982.4
2018-07-12T09:16:43.839Z,982.4
2018-07-12T09:17:45.043Z,982.5
2018-07-12T09:18:46.180Z,982.4
2018-07-12T09:19:47.348Z,982.3
2018-07-12T09:20:48.501Z,982.5
2018-07-12T09:21:49.765Z,982.4
2018-07-12T09:22:50.928Z,982.3
2018-07-12T09:23:52.094Z,982.5
2018-07-12T09:24:53.418Z,982.5
2018-07-12T09:25:54.654Z,982.5
2018-07-12T09:26:55.921Z,982.3
2018-07-12T09:27:57.351Z,982.2
2018-07-12T09:28:58.557Z,982.3
2018-07-12T09:30:00.054Z,982.4
2018-07-12T09:31:01.398Z,982.3
2018-07-12T09:32:02.636Z,982.3
2018-07-12T09:33:03.858Z,982.1
2018-07-12T09:34:05.085Z,982.3
2018-07-12T09:35:06.266Z,982.3
2018-07-12T09:36:07.534Z,982.2
2018-07-12T09:37:08.912Z,982.4
2018-07-12T09:38:10.005Z,982.4
2018-07-12T09:39:11.452Z,982.4
2018-07-12T09:40:12.817Z,982.3
2018-07-12T09:41:13.997Z,982.3
2018-07-12T09:42:15.219Z,982.4
2018-07-12T09:43:16.341Z,982.4
2018-07-12T09:44:17.492Z,982.4
2018-07-12T09:45:18.639Z,982.4
2018-07-12T09:46:19.890Z,982.3
2018-07-12T09:47:21.302Z,982.4
2018-07-12T09:48:22.456Z,982.4
2018-07-12T09:49:23.807Z,982.2
2018-07-12T09:50:25.050Z,982.2
2018-07-12T09:51:26.241Z,982.2
2018-07-12T09:52:27.728Z,982.3
2018-07-12T09:53:28.875Z,982.3
2018-07-12T09:54:30.041Z,982.3
2018-07-12T09:55:31.272Z,982.2
2018-07-12T09:56:32.386Z,982.1
2018-07-12T09:57:33.582Z,982.2
2018-07-12T09:58:34.753Z,982
2018-07-12T09:59:35.915Z,982.2
2018-07-12T10:00:37.115Z,982.2
2018-07-12T10:01:38.509Z,982.2
2018-07-12T10:02:39.841Z,982.2
2018-07-12T10:03:41.051Z,982.3
2018-07-12T10:04:42.217Z,982.4
2018-07-12T10:05:43.494Z,982.4
2018-07-12T10:06:44.625Z,982.4
2018-07-12T10:07:45.909Z,982.3
2018-07-12T10:08:47.121Z,982.3
2018-07-12T10:09:48.377Z,982.3
2018-07-12T10:10:49.562Z,982.3
2018-07-12T10:11:50.739Z,982.3
2018-07-12T10:12:52.000Z,982.3
2018-07-12T10:13:53.181Z,982.2
2018-07-12T10:14:54.479Z,982.3
2018-07-12T10:15:55.651Z,982.3
2018-07-12T10:16:56.795Z,982.2
2018-07-12T10:17:57.978Z,982.3
2018-07-12T10:18:59.117Z,982.2
2018-07-12T10:20:00.266Z,982.2
2018-07-12T10:21:01.498Z,982.2
2018-07-12T10:22:02.699Z,982.2
2018-07-12T10:23:03.951Z,982.2
2018-07-12T10:24:05.189Z,982.1
2018-07-12T10:25:06.386Z,982.1
2018-07-12T10:26:07.596Z,982.2
2018-07-12T10:27:08.770Z,982.1
2018-07-12T10:28:11.355Z,982.1
2018-07-12T10:29:12.638Z,982.1
2018-07-12T10:30:13.897Z,982.1
2018-07-12T10:31:15.067Z,982.2
2018-07-12T10:32:16.276Z,982.2
2018-07-12T10:33:17.455Z,982.1
2018-07-12T10:34:18.675Z,982.2
2018-07-12T10:35:19.900Z,982.1
2018-07-12T10:36:21.098Z,982.1
2018-07-12T10:37:22.346Z,982.1
2018-07-12T10:38:23.677Z,982.1
2018-07-12T10:39:24.927Z,982.1
2018-07-12T10:40:26.076Z,982.1
2018-07-12T10:41:27.264Z,982.1
2018-07-12T10:42:28.442Z,982.2
2018-07-12T10:43:29.643Z,982.3
2018-07-12T10:44:30.883Z,982.3
2018-07-12T10:45:31.990Z,982.2
2018-07-12T10:46:33.233Z,982.1
2018-07-12T10:47:34.486Z,982
2018-07-12T10:48:35.728Z,982.2
2018-07-12T10:49:36.891Z,982.2
2018-07-12T10:50:38.052Z,982.1
2018-07-12T10:51:39.193Z,982.2
2018-07-12T10:52:40.394Z,982.2
2018-07-12T10:53:41.783Z,982.1
2018-07-12T10:54:42.980Z,982.1
2018-07-12T10:55:44.337Z,981.9
2018-07-12T10:56:45.594Z,982
2018-07-12T10:57:46.914Z,981.9
2018-07-12T10:58:48.889Z,982.1
2018-07-12T10:59:50.029Z,982
2018-07-12T11:00:51.237Z,982
2018-07-12T11:01:52.430Z,982
2018-07-12T11:02:53.698Z,982
2018-07-12T11:03:55.027Z,982
2018-07-12T11:04:56.351Z,981.9
2018-07-12T11:05:57.563Z,981.8
2018-07-12T11:06:58.738Z,981.8
2018-07-12T11:07:59.964Z,981.8
2018-07-12T11:09:01.163Z,981.8
2018-07-12T11:10:02.562Z,981.7
2018-07-12T11:11:03.922Z,981.8
2018-07-12T11:12:05.107Z,981.8
2018-07-12T11:13:06.321Z,981.8
2018-07-12T11:14:07.628Z,981.8
2018-07-12T11:15:08.804Z,981.8
2018-07-12T11:16:10.058Z,981.8
2018-07-12T11:17:11.259Z,981.8
2018-07-12T11:18:12.442Z,981.8
2018-07-12T11:19:13.803Z,981.8
2018-07-12T11:20:15.100Z,981.6
2018-07-12T11:21:16.417Z,981.8
2018-07-12T11:22:17.596Z,981.9
2018-07-12T11:23:18.785Z,981.9
2018-07-12T11:24:20.257Z,981.8
2018-07-12T11:25:21.429Z,981.8
2018-07-12T11:26:22.887Z,981.9
2018-07-12T11:27:24.154Z,981.8
2018-07-12T11:28:25.366Z,981.8
2018-07-12T11:29:26.614Z,981.9
2018-07-12T11:30:27.881Z,981.8
2018-07-12T11:31:29.067Z,981.8
2018-07-12T11:32:30.331Z,981.7
2018-07-12T11:33:33.749Z,981.7
2018-07-12T11:34:35.058Z,981.8
2018-07-12T11:35:36.259Z,981.8
2018-07-12T11:36:39.376Z,981.8
2018-07-12T11:37:40.585Z,981.7
2018-07-12T11:38:41.751Z,981.8
2018-07-12T11:39:42.956Z,981.8
2018-07-12T11:40:44.134Z,981.8
2018-07-12T11:41:45.339Z,981.8
2018-07-12T11:42:46.541Z,981.7
2018-07-12T11:43:47.775Z,981.8
2018-07-12T11:44:49.861Z,981.7
2018-07-12T11:45:51.013Z,981.6
2018-07-12T11:46:52.214Z,981.6
2018-07-12T11:47:53.443Z,981.6
2018-07-12T11:48:54.654Z,981.6
2018-07-12T11:49:55.848Z,981.6
2018-07-12T11:50:57.194Z,981.5
2018-07-12T11:51:58.357Z,981.5
2018-07-12T11:52:59.641Z,981.6
2018-07-12T11:54:00.736Z,981.5
2018-07-12T11:55:02.223Z,981.5
2018-07-12T11:56:03.494Z,981.6
2018-07-12T11:57:04.818Z,981.5
2018-07-12T11:58:06.008Z,981.5
2018-07-12T11:59:07.149Z,981.5
2018-07-12T12:00:08.529Z,981.6
2018-07-12T12:01:09.719Z,981.6
2018-07-12T12:02:10.896Z,981.6
2018-07-12T12:03:12.165Z,981.6
2018-07-12T12:04:13.349Z,981.6
2018-07-12T12:05:14.690Z,981.5
2018-07-12T12:06:15.935Z,981.5
2018-07-12T12:07:17.192Z,981.3
2018-07-12T12:08:18.405Z,981.4
2018-07-12T12:09:19.577Z,981.5
2018-07-12T12:10:20.829Z,981.5
2018-07-12T12:11:23.309Z,981.5
2018-07-12T12:12:24.507Z,981.5
2018-07-12T12:13:25.710Z,981.5
2018-07-12T12:14:26.914Z,981.6
2018-07-12T12:15:28.153Z,981.5
2018-07-12T12:16:29.305Z,981.4
2018-07-12T12:17:30.748Z,981.5
2018-07-12T12:18:31.918Z,981.6
2018-07-12T12:19:33.091Z,981.5
2018-07-12T12:20:34.358Z,981.5
2018-07-12T12:21:35.522Z,981.5
2018-07-12T12:22:36.737Z,981.5
2018-07-12T12:23:37.964Z,981.4
2018-07-12T12:24:39.183Z,981.5
2018-07-12T12:25:40.810Z,981.5
2018-07-12T12:26:42.051Z,981.4
2018-07-12T12:27:43.420Z,981.5
2018-07-12T12:28:44.615Z,981.5
2018-07-12T12:29:45.775Z,981.4
2018-07-12T12:30:46.952Z,981.4
2018-07-12T12:31:48.118Z,981.4
2018-07-12T12:32:49.380Z,981.4
2018-07-12T12:33:50.563Z,981.3
2018-07-12T12:34:51.777Z,981.3
2018-07-12T12:35:53.035Z,981.4
2018-07-12T12:36:54.268Z,981.3
2018-07-12T12:37:55.474Z,981.4
2018-07-12T12:38:56.641Z,981.3
2018-07-12T12:39:57.903Z,981.3
2018-07-12T12:40:59.122Z,981.3
2018-07-12T12:42:00.443Z,981.3
2018-07-12T12:43:01.634Z,981.3
2018-07-12T12:44:02.842Z,981.3
2018-07-12T12:45:04.043Z,981.2
2018-07-12T12:46:05.330Z,981.2
2018-07-12T12:47:06.493Z,981.2
2018-07-12T12:48:09.775Z,981.2
2018-07-12T12:49:10.957Z,981.2
2018-07-12T12:50:12.181Z,981.2
2018-07-12T12:51:13.406Z,981.1
2018-07-12T12:52:14.670Z,981.1
2018-07-12T12:53:15.881Z,981.1
2018-07-12T12:54:17.094Z,981.2
2018-07-12T12:55:18.321Z,981.2
2018-07-12T12:56:19.625Z,981.2
2018-07-12T12:57:20.830Z,981.2
2018-07-12T12:58:22.017Z,981.1
2018-07-12T12:59:23.177Z,981.2
2018-07-12T13:00:24.401Z,981
2018-07-12T13:01:25.698Z,981
2018-07-12T13:02:26.826Z,981.1
2018-07-12T13:03:28.047Z,981.2
2018-07-12T13:04:29.183Z,981.2
2018-07-12T13:05:30.313Z,981.2
2018-07-12T13:06:31.541Z,981.2
2018-07-12T13:07:32.703Z,981.1
2018-07-12T13:08:33.934Z,981.2
2018-07-12T13:09:35.110Z,981.1
2018-07-12T13:10:36.319Z,981.1
2018-07-12T13:11:37.562Z,981.1